This is the latest recevied weather packets stored in our database for station/object KM4NDN. If no packets are shown the sender has not sent any weather packets the latest 10 day(s).
| Time | Temp. | Humidity | Pressure | Rain* | Wind** | Luminosity | Snow |
|---|---|---|---|---|---|---|---|
| 1778080886 | 11.67° C | 60% | 1010.3 hPa | 0 mm | - | 730 W/m² | - |
| 1778080585 | 11.67° C | 57% | 1010.2 hPa | 0 mm | - | 715 W/m² | - |
| 1778080281 | 11.67° C | 59% | 1010 hPa | 0 mm | - | 637 W/m² | - |
| 1778079978 | 11.67° C | 63% | 1010.2 hPa | 0 mm | - | 661 W/m² | - |
| 1778079675 | 11.67° C | 63% | 1010 hPa | 0 mm | - | 616 W/m² | - |
| 1778079372 | 11.67° C | 61% | 1009.7 hPa | 0 mm | - | 616 W/m² | - |
| 1778079069 | 11.67° C | 63% | 1009.9 hPa | 0 mm | - | 662 W/m² | - |
| 1778078766 | 11.67° C | 65% | 1009.8 hPa | 0 mm | - | 670 W/m² | - |
| 1778078462 | 11.67° C | 66% | 1009.6 hPa | 0 mm | - | 645 W/m² | - |
| 1778078161 | 11.11° C | 63% | 1009.6 hPa | 0 mm | - | 630 W/m² | - |
| 1778077858 | 11.11° C | 67% | 1009.4 hPa | 0 mm | - | 446 W/m² | - |
| 1778077556 | 11.11° C | 68% | 1009.4 hPa | 0 mm | - | 478 W/m² | - |
| 1778077254 | 11.11° C | 68% | 1009.6 hPa | 0 mm | - | 599 W/m² | - |
| 1778076951 | 11.11° C | 69% | 1009.7 hPa | 0 mm | - | 581 W/m² | - |
| 1778076650 | 11.11° C | 72% | 1009.2 hPa | 0 mm | - | 591 W/m² | - |
| 1778076347 | 10.56° C | 73% | 1009.5 hPa | 0 mm | - | 573 W/m² | - |
| 1778076044 | 10.56° C | 74% | 1009.6 hPa | 0 mm | - | 448 W/m² | - |
| 1778075741 | 10.56° C | 76% | 1009.6 hPa | 0 mm | - | 416 W/m² | - |
| 1778075437 | 10.56° C | 80% | 1009.5 hPa | 0 mm | - | 516 W/m² | - |
| 1778075133 | 9.44° C | 83% | 1009.7 hPa | 0 mm | - | 535 W/m² | - |
| 1778074829 | 9.44° C | 82% | 1009.1 hPa | 0 mm | - | 301 W/m² | - |
| 1778074527 | 8.89° C | 83% | 1009.4 hPa | 0 mm | - | 357 W/m² | - |
| 1778074224 | 8.89° C | 84% | 1009.3 hPa | 0 mm | - | 273 W/m² | - |
| 1778073921 | 8.89° C | 85% | 1009.3 hPa | 0 mm | - | 304 W/m² | - |
| 1778073618 | 8.33° C | 85% | 1009.1 hPa | 0 mm | - | 184 W/m² | - |
* Rain latest hour (hover to see other rain measurements)
** Current wind speed in m/s (hover to see current wind gust speed)